createdAt,value
2022-08-02T00:01:30.451Z,20.69
2022-08-02T00:03:56.837Z,20.65
2022-08-02T00:06:23.189Z,20.74
2022-08-02T00:08:49.563Z,20.63
2022-08-02T00:11:15.943Z,20.51
2022-08-02T00:13:42.356Z,20.27
2022-08-02T00:16:08.739Z,20.05
2022-08-02T00:18:35.112Z,19.96
2022-08-02T00:21:01.557Z,19.91
2022-08-02T00:23:27.979Z,20.00
2022-08-02T00:25:55.924Z,20.03
2022-08-02T00:28:26.843Z,19.91
2022-08-02T00:30:47.151Z,19.79
2022-08-02T00:33:13.537Z,19.71
2022-08-02T00:35:40.602Z,19.58
2022-08-02T00:38:06.319Z,19.55
2022-08-02T00:40:32.711Z,19.42
2022-08-02T00:42:59.115Z,19.20
2022-08-02T00:46:02.711Z,19.24
2022-08-02T00:47:51.982Z,19.35
2022-08-02T00:50:18.442Z,19.27
2022-08-02T00:52:44.876Z,19.08
2022-08-02T00:55:11.308Z,19.06
2022-08-02T00:57:37.697Z,18.93
2022-08-02T01:00:04.073Z,18.83
2022-08-02T01:02:30.434Z,18.71
2022-08-02T01:04:56.866Z,18.69
2022-08-02T01:07:23.272Z,18.62
2022-08-02T01:09:49.706Z,18.61
2022-08-02T01:12:16.317Z,18.59
2022-08-02T01:14:42.570Z,18.47
2022-08-02T01:17:08.948Z,18.49
2022-08-02T01:19:35.328Z,18.40
2022-08-02T01:22:01.694Z,18.41
2022-08-02T01:24:28.051Z,18.43
2022-08-02T01:26:54.461Z,18.31
2022-08-02T01:29:20.862Z,18.28
2022-08-02T01:31:47.241Z,18.22
2022-08-02T01:34:13.607Z,18.25
2022-08-02T01:36:40.055Z,18.43
2022-08-02T01:39:06.417Z,18.47
2022-08-02T01:41:32.789Z,18.48
2022-08-02T01:43:59.256Z,18.54
2022-08-02T01:46:25.639Z,18.50
2022-08-02T01:48:52.074Z,18.55
2022-08-02T01:51:18.409Z,18.52
2022-08-02T01:53:44.792Z,18.72
2022-08-02T01:56:11.184Z,18.61
2022-08-02T01:58:37.577Z,18.50
2022-08-02T02:01:04.011Z,18.45
2022-08-02T02:03:30.354Z,18.32
2022-08-02T02:05:56.736Z,18.17
2022-08-02T02:08:26.920Z,18.18
2022-08-02T02:10:49.500Z,18.30
2022-08-02T02:13:15.880Z,18.35
2022-08-02T02:15:42.371Z,18.47
2022-08-02T02:18:13.154Z,18.52
2022-08-02T02:20:35.119Z,18.44
2022-08-02T02:23:01.568Z,18.28
2022-08-02T02:25:31.661Z,18.29
2022-08-02T02:27:54.356Z,18.46
2022-08-02T02:30:20.764Z,18.73
2022-08-02T02:32:47.197Z,18.91
2022-08-02T02:35:13.577Z,18.83
2022-08-02T02:37:40.055Z,18.82
2022-08-02T02:40:06.431Z,18.67
2022-08-02T02:42:32.794Z,18.57
2022-08-02T02:44:59.261Z,18.58
2022-08-02T02:47:41.607Z,18.60
2022-08-02T02:49:52.078Z,18.67
2022-08-02T02:52:18.464Z,18.87
2022-08-02T02:54:44.830Z,18.90
2022-08-02T02:57:11.321Z,19.02
2022-08-02T02:59:42.571Z,18.88
2022-08-02T03:02:04.123Z,18.70
2022-08-02T03:04:36.025Z,18.56
2022-08-02T03:06:56.868Z,18.42
2022-08-02T03:09:23.277Z,18.48
2022-08-02T03:11:49.635Z,18.43
2022-08-02T03:14:16.025Z,18.39
2022-08-02T03:16:42.385Z,18.51
2022-08-02T03:19:08.776Z,18.84
2022-08-02T03:21:35.134Z,19.00
2022-08-02T03:24:01.510Z,19.01
2022-08-02T03:26:27.908Z,18.90
2022-08-02T03:28:54.339Z,18.67
2022-08-02T03:31:20.715Z,18.43
2022-08-02T03:33:47.102Z,18.30
2022-08-02T03:36:13.499Z,18.18
2022-08-02T03:38:39.871Z,18.09
2022-08-02T03:41:06.260Z,18.05
2022-08-02T03:43:32.661Z,18.06
2022-08-02T03:45:59.027Z,18.11
2022-08-02T03:48:34.178Z,18.14
2022-08-02T03:50:51.774Z,18.07
2022-08-02T03:53:20.142Z,18.16
2022-08-02T03:55:44.503Z,18.12
2022-08-02T03:58:10.925Z,18.09
2022-08-02T04:00:37.371Z,18.20
2022-08-02T04:03:03.724Z,18.32
2022-08-02T04:05:30.107Z,18.38
2022-08-02T04:08:33.081Z,18.34
2022-08-02T04:10:22.890Z,18.36
2022-08-02T04:12:49.275Z,18.44
2022-08-02T04:15:15.642Z,18.59
2022-08-02T04:17:42.033Z,18.66
2022-08-02T04:20:08.397Z,18.69
2022-08-02T04:22:34.766Z,18.73
2022-08-02T04:25:01.183Z,18.89
2022-08-02T04:28:15.441Z,19.10
2022-08-02T04:29:54.039Z,19.46
2022-08-02T04:32:20.405Z,19.63
2022-08-02T04:35:11.372Z,19.91
2022-08-02T04:37:13.200Z,19.96
2022-08-02T04:39:39.581Z,19.66
2022-08-02T04:42:05.996Z,19.76
2022-08-02T04:44:32.345Z,20.07
2022-08-02T04:46:58.763Z,20.31
2022-08-02T04:49:25.239Z,20.46
2022-08-02T04:51:51.548Z,20.37
2022-08-02T04:54:17.932Z,20.60
2022-08-02T04:56:44.394Z,21.23
2022-08-02T04:59:10.751Z,21.83
2022-08-02T05:01:37.126Z,21.98
2022-08-02T05:04:03.544Z,22.11
2022-08-02T05:06:29.908Z,22.61
2022-08-02T05:08:56.298Z,23.09
2022-08-02T05:11:23.050Z,23.40
2022-08-02T05:13:58.701Z,23.77
2022-08-02T05:16:15.464Z,24.18
2022-08-02T05:18:41.829Z,25.21
2022-08-02T05:21:08.189Z,26.47
2022-08-02T05:23:34.595Z,27.82
2022-08-02T05:26:00.963Z,28.42
2022-08-02T05:28:27.406Z,28.08
2022-08-02T05:30:53.795Z,26.92
2022-08-02T05:33:20.156Z,26.46
2022-08-02T05:35:46.545Z,27.24
2022-08-02T05:38:12.966Z,28.33
2022-08-02T05:40:54.523Z,27.95
2022-08-02T05:43:05.723Z,28.93
2022-08-02T05:45:32.139Z,29.33
2022-08-02T05:47:58.563Z,29.48
2022-08-02T05:50:24.953Z,28.62
2022-08-02T05:52:51.315Z,28.78
2022-08-02T05:55:17.693Z,29.30
2022-08-02T05:57:44.093Z,29.82
2022-08-02T06:00:10.452Z,30.06
2022-08-02T06:02:36.858Z,30.25
2022-08-02T06:05:03.388Z,29.28
2022-08-02T06:07:29.607Z,28.89
2022-08-02T06:09:55.974Z,28.48
2022-08-02T06:12:22.339Z,29.27
2022-08-02T06:14:54.035Z,30.01
2022-08-02T06:17:15.112Z,30.05
2022-08-02T06:19:51.466Z,30.29
2022-08-02T06:22:31.323Z,30.42
2022-08-02T06:24:34.344Z,30.16
2022-08-02T06:27:00.707Z,30.20
2022-08-02T06:29:27.105Z,30.30
2022-08-02T06:31:53.511Z,30.75
2022-08-02T06:34:19.978Z,30.96
2022-08-02T06:36:46.419Z,31.55
2022-08-02T06:39:12.829Z,31.98
2022-08-02T06:41:39.225Z,31.87
2022-08-02T06:44:42.037Z,31.43
2022-08-02T06:46:37.823Z,31.38
2022-08-02T06:48:58.608Z,31.60
2022-08-02T06:51:25.009Z,31.48
2022-08-02T06:53:51.430Z,32.09
2022-08-02T06:56:17.819Z,32.16
2022-08-02T06:58:44.216Z,31.64
2022-08-02T07:01:10.674Z,31.37
2022-08-02T07:03:37.029Z,31.31
2022-08-02T07:06:03.414Z,31.04
2022-08-02T07:08:29.786Z,30.63
2022-08-02T07:10:56.256Z,31.29
2022-08-02T07:13:22.700Z,31.56
2022-08-02T07:15:49.506Z,32.16
2022-08-02T07:18:15.565Z,32.81
2022-08-02T07:20:41.950Z,33.50
2022-08-02T07:23:08.342Z,32.72
2022-08-02T07:26:01.998Z,32.23
2022-08-02T07:28:01.125Z,31.73
2022-08-02T07:30:27.513Z,32.47
2022-08-02T07:32:53.878Z,32.25
2022-08-02T07:35:20.262Z,31.88
2022-08-02T07:37:54.722Z,31.66
2022-08-02T07:40:13.961Z,31.17
2022-08-02T07:42:39.404Z,31.10
2022-08-02T07:45:05.782Z,31.76
2022-08-02T07:47:32.165Z,32.40
2022-08-02T07:49:58.556Z,33.12
2022-08-02T07:52:24.919Z,32.46
2022-08-02T07:54:51.348Z,33.00
2022-08-02T07:57:17.710Z,32.94
2022-08-02T07:59:44.106Z,33.12
2022-08-02T08:02:10.658Z,33.15
2022-08-02T08:04:36.915Z,33.43
2022-08-02T08:07:03.294Z,33.07
2022-08-02T08:09:29.704Z,33.51
2022-08-02T08:11:56.105Z,33.34
2022-08-02T08:14:22.604Z,33.00
2022-08-02T08:16:49.034Z,33.28
2022-08-02T08:19:15.462Z,33.34
2022-08-02T08:21:41.823Z,33.59
2022-08-02T08:24:08.189Z,33.57
2022-08-02T08:26:34.619Z,34.12
2022-08-02T08:29:01.096Z,34.36
2022-08-02T08:31:27.529Z,33.79
2022-08-02T08:33:53.895Z,33.93
2022-08-02T08:36:20.252Z,34.42
2022-08-02T08:38:46.621Z,34.60
2022-08-02T08:41:13.057Z,34.45
2022-08-02T08:43:40.536Z,34.00
2022-08-02T08:46:06.908Z,33.96
2022-08-02T08:48:33.381Z,33.53
2022-08-02T08:50:59.779Z,33.62
2022-08-02T08:53:36.731Z,33.56
2022-08-02T08:55:52.680Z,33.36
2022-08-02T08:58:19.052Z,33.48
2022-08-02T09:00:45.441Z,33.90
2022-08-02T09:03:11.806Z,33.94
2022-08-02T09:05:38.167Z,34.22
2022-08-02T09:08:04.554Z,34.38
2022-08-02T09:10:31.030Z,34.79
2022-08-02T09:12:57.406Z,35.09
2022-08-02T09:15:23.785Z,35.25
2022-08-02T09:17:50.149Z,34.60
2022-08-02T09:20:16.580Z,33.53
2022-08-02T09:22:42.932Z,34.21
2022-08-02T09:25:09.366Z,34.66
2022-08-02T09:27:35.757Z,34.63
2022-08-02T09:30:12.411Z,35.07
2022-08-02T09:32:28.494Z,35.62
2022-08-02T09:34:54.894Z,36.03
2022-08-02T09:37:21.325Z,36.04
2022-08-02T09:39:47.979Z,35.60
2022-08-02T09:42:14.568Z,35.29
2022-08-02T09:44:40.451Z,35.23
2022-08-02T09:47:06.827Z,35.30
2022-08-02T09:49:33.234Z,35.06
2022-08-02T09:51:59.588Z,34.76
2022-08-02T09:54:26.015Z,35.83
2022-08-02T09:56:52.482Z,35.01
2022-08-02T09:59:18.842Z,34.63
2022-08-02T10:01:50.753Z,35.16
2022-08-02T10:04:19.938Z,35.36
2022-08-02T10:06:37.964Z,34.90
2022-08-02T10:09:04.382Z,34.98
2022-08-02T10:11:30.765Z,34.56
2022-08-02T10:13:57.123Z,34.71
2022-08-02T10:16:23.528Z,35.16
2022-08-02T10:18:49.911Z,34.05
2022-08-02T10:21:16.309Z,33.93
2022-08-02T10:23:42.726Z,33.75
2022-08-02T10:26:09.108Z,33.49
2022-08-02T10:28:35.464Z,32.79
2022-08-02T10:31:01.832Z,33.65
2022-08-02T10:33:28.204Z,32.28
2022-08-02T10:36:07.562Z,31.66
2022-08-02T10:38:20.955Z,33.16
2022-08-02T10:40:47.366Z,34.65
2022-08-02T10:43:13.783Z,33.22
2022-08-02T10:45:40.176Z,31.93
2022-08-02T10:48:06.542Z,32.36
2022-08-02T10:50:32.936Z,31.59
2022-08-02T10:52:59.312Z,31.14
2022-08-02T10:55:25.751Z,31.14
2022-08-02T10:57:52.166Z,30.88
2022-08-02T11:00:19.504Z,31.73
2022-08-02T11:02:45.053Z,32.60
2022-08-02T11:05:11.478Z,32.97
2022-08-02T11:07:37.837Z,33.60
2022-08-02T11:10:04.229Z,33.63
2022-08-02T11:12:30.620Z,33.92
2022-08-02T11:14:56.997Z,34.17
2022-08-02T11:17:23.417Z,32.71
2022-08-02T11:19:49.777Z,31.77
2022-08-02T11:22:16.198Z,30.90
2022-08-02T11:24:42.570Z,30.94
2022-08-02T11:27:09.076Z,31.79
2022-08-02T11:29:38.193Z,32.45
2022-08-02T11:32:01.795Z,33.34
2022-08-02T11:34:37.659Z,33.74
2022-08-02T11:36:54.633Z,33.53
2022-08-02T11:39:21.020Z,32.61
2022-08-02T11:41:47.831Z,31.79
2022-08-02T11:44:13.749Z,32.64
2022-08-02T11:46:40.137Z,33.33
2022-08-02T11:49:08.547Z,33.20
2022-08-02T11:51:32.881Z,33.76
2022-08-02T11:53:59.285Z,33.98
2022-08-02T11:56:25.643Z,34.06
2022-08-02T11:58:52.089Z,34.23
2022-08-02T12:01:18.517Z,34.40
2022-08-02T12:03:45.012Z,34.48
2022-08-02T12:06:16.715Z,33.91
2022-08-02T12:08:37.686Z,34.03
2022-08-02T12:11:04.147Z,34.13
2022-08-02T12:13:30.582Z,34.05
2022-08-02T12:15:56.980Z,33.87
2022-08-02T12:18:23.345Z,34.06
2022-08-02T12:20:49.709Z,34.68
2022-08-02T12:23:16.210Z,34.87
2022-08-02T12:25:42.633Z,33.54
2022-08-02T12:28:09.077Z,32.98
2022-08-02T12:30:35.503Z,33.21
2022-08-02T12:33:01.953Z,33.34
2022-08-02T12:35:28.365Z,33.79
2022-08-02T12:37:54.758Z,34.14
2022-08-02T12:40:25.394Z,33.87
2022-08-02T12:42:47.546Z,33.73
2022-08-02T12:45:13.907Z,33.79
2022-08-02T12:47:40.281Z,33.65
2022-08-02T12:50:06.709Z,33.75
2022-08-02T12:52:33.084Z,33.13
2022-08-02T12:54:59.470Z,33.05
2022-08-02T12:57:25.863Z,33.79
2022-08-02T12:59:52.300Z,33.98
2022-08-02T13:02:19.114Z,33.84
2022-08-02T13:04:50.639Z,33.98
2022-08-02T13:07:11.466Z,33.50
2022-08-02T13:09:37.854Z,33.21
2022-08-02T13:12:04.221Z,33.04
2022-08-02T13:14:30.604Z,32.96
2022-08-02T13:16:57.014Z,32.68
2022-08-02T13:19:23.377Z,32.33
2022-08-02T13:22:02.754Z,32.28
2022-08-02T13:24:33.167Z,31.78
2022-08-02T13:26:42.594Z,31.79
2022-08-02T13:29:08.955Z,31.88
2022-08-02T13:31:36.813Z,32.20
2022-08-02T13:34:01.688Z,32.47
2022-08-02T13:36:28.054Z,32.27
2022-08-02T13:38:54.912Z,31.97
2022-08-02T13:41:21.299Z,31.85
2022-08-02T13:43:53.502Z,31.51
2022-08-02T13:46:14.115Z,31.65
2022-08-02T13:48:40.542Z,31.78
2022-08-02T13:51:06.907Z,31.43
2022-08-02T13:53:33.415Z,31.55
2022-08-02T13:55:59.846Z,31.67
2022-08-02T13:58:26.209Z,31.52
2022-08-02T14:00:52.602Z,31.29
2022-08-02T14:03:18.966Z,31.14
2022-08-02T14:05:48.083Z,31.15
2022-08-02T14:08:16.185Z,31.21
2022-08-02T14:10:38.194Z,31.11
2022-08-02T14:13:04.674Z,31.07
2022-08-02T14:15:31.108Z,31.15
2022-08-02T14:17:57.542Z,31.39
2022-08-02T14:20:30.218Z,31.61
2022-08-02T14:22:50.506Z,31.70
2022-08-02T14:25:16.879Z,31.76
2022-08-02T14:27:43.243Z,31.71
2022-08-02T14:30:09.629Z,31.68
2022-08-02T14:32:35.991Z,31.70
2022-08-02T14:35:02.477Z,31.59
2022-08-02T14:37:29.311Z,31.39
2022-08-02T14:40:00.156Z,31.36
2022-08-02T14:42:22.074Z,31.21
2022-08-02T14:44:48.524Z,31.13
2022-08-02T14:47:14.943Z,31.23
2022-08-02T14:49:42.884Z,31.10
2022-08-02T14:52:07.694Z,30.85
2022-08-02T14:54:34.136Z,30.77
2022-08-02T14:57:00.566Z,30.61
2022-08-02T14:59:26.940Z,30.51
2022-08-02T15:01:53.396Z,30.50
2022-08-02T15:04:19.712Z,30.65
2022-08-02T15:06:46.201Z,30.77
2022-08-02T15:09:12.591Z,30.91
2022-08-02T15:11:47.737Z,30.87
2022-08-02T15:14:05.467Z,30.80
2022-08-02T15:16:54.959Z,30.73
2022-08-02T15:18:58.165Z,30.57
2022-08-02T15:21:40.604Z,30.48
2022-08-02T15:23:51.037Z,30.35
2022-08-02T15:26:17.439Z,30.37
2022-08-02T15:28:43.996Z,30.36
2022-08-02T15:31:10.370Z,30.29
2022-08-02T15:33:36.773Z,30.21
2022-08-02T15:36:03.193Z,30.19
2022-08-02T15:38:29.554Z,30.17
2022-08-02T15:40:55.936Z,30.08
2022-08-02T15:43:22.393Z,30.17
2022-08-02T15:45:48.814Z,30.25
2022-08-02T15:48:15.209Z,30.31
2022-08-02T15:50:41.580Z,30.36
2022-08-02T15:53:08.535Z,30.38
2022-08-02T15:55:39.974Z,30.37
2022-08-02T15:58:01.297Z,30.45
2022-08-02T16:00:27.662Z,30.53
2022-08-02T16:02:54.057Z,30.43
2022-08-02T16:05:20.420Z,30.41
2022-08-02T16:07:46.837Z,30.46
2022-08-02T16:10:13.220Z,30.49
2022-08-02T16:12:39.697Z,30.53
2022-08-02T16:15:06.080Z,30.52
2022-08-02T16:17:53.428Z,30.48
2022-08-02T16:19:58.975Z,30.49
2022-08-02T16:22:25.422Z,30.42
2022-08-02T16:24:51.792Z,30.32
2022-08-02T16:27:18.180Z,30.30
2022-08-02T16:29:44.616Z,30.28
2022-08-02T16:32:11.293Z,30.15
2022-08-02T16:35:04.049Z,30.12
2022-08-02T16:37:03.815Z,30.12
2022-08-02T16:39:30.211Z,30.11
2022-08-02T16:41:56.602Z,30.08
2022-08-02T16:44:29.730Z,30.01
2022-08-02T16:46:50.849Z,29.85
2022-08-02T16:50:05.519Z,29.87
2022-08-02T16:51:42.454Z,29.86
2022-08-02T16:54:08.821Z,29.62
2022-08-02T16:56:35.272Z,29.50
2022-08-02T16:59:02.385Z,29.49
2022-08-02T17:02:11.037Z,29.47
2022-08-02T17:03:56.254Z,29.46
2022-08-02T17:06:20.865Z,29.43
2022-08-02T17:08:54.108Z,29.30
2022-08-02T17:11:13.667Z,29.23
2022-08-02T17:13:40.138Z,29.20
2022-08-02T17:16:26.238Z,29.14
2022-08-02T17:18:34.260Z,29.03
2022-08-02T17:20:59.292Z,28.94
2022-08-02T17:24:05.868Z,28.88
2022-08-02T17:25:52.616Z,28.80
2022-08-02T17:28:18.435Z,28.81
2022-08-02T17:30:44.808Z,28.68
2022-08-02T17:33:11.207Z,28.66
2022-08-02T17:35:51.930Z,28.66
2022-08-02T17:38:05.312Z,28.69
2022-08-02T17:40:30.398Z,28.67
2022-08-02T17:42:56.809Z,28.57
2022-08-02T17:45:25.911Z,28.51
2022-08-02T17:48:04.060Z,28.39
2022-08-02T17:50:16.207Z,28.32
2022-08-02T17:52:52.469Z,28.25
2022-08-02T17:55:08.820Z,28.13
2022-08-02T17:57:55.696Z,28.04
2022-08-02T18:00:04.170Z,28.02
2022-08-02T18:02:27.961Z,27.95
2022-08-02T18:04:54.355Z,27.90
2022-08-02T18:07:23.554Z,27.81
2022-08-02T18:09:47.163Z,27.73
2022-08-02T18:12:14.164Z,27.65
2022-08-02T18:14:48.812Z,27.60
2022-08-02T18:17:06.270Z,27.56
2022-08-02T18:19:33.127Z,27.51
2022-08-02T18:21:59.014Z,27.41
2022-08-02T18:24:25.384Z,27.38
2022-08-02T18:26:51.779Z,27.33
2022-08-02T18:29:18.171Z,27.28
2022-08-02T18:31:50.841Z,27.22
2022-08-02T18:34:10.940Z,27.18
2022-08-02T18:36:47.164Z,27.13
2022-08-02T18:39:07.774Z,27.09
2022-08-02T18:41:30.127Z,27.04
2022-08-02T18:43:56.498Z,26.97
2022-08-02T18:46:22.927Z,26.96
2022-08-02T18:48:49.320Z,26.90
2022-08-02T18:51:15.731Z,26.88
2022-08-02T18:56:08.511Z,26.81
2022-08-02T18:58:34.922Z,26.76
2022-08-02T19:01:05.126Z,26.70
2022-08-02T19:03:27.726Z,26.64
2022-08-02T19:05:54.415Z,26.59
2022-08-02T19:08:20.473Z,26.52
2022-08-02T19:10:49.986Z,26.45
2022-08-02T19:13:17.316Z,26.42
2022-08-02T19:15:39.716Z,26.38
2022-08-02T19:18:06.099Z,26.31
2022-08-02T19:20:32.569Z,26.23
2022-08-02T19:22:58.953Z,26.27
2022-08-02T19:25:27.845Z,26.23
2022-08-02T19:27:51.773Z,26.21
2022-08-02T19:30:18.140Z,26.23
2022-08-02T19:32:58.884Z,25.99
2022-08-02T19:35:19.344Z,25.73
2022-08-02T19:37:38.543Z,25.75
2022-08-02T19:40:03.677Z,25.81
2022-08-02T19:42:30.062Z,25.93
2022-08-02T19:44:56.430Z,25.94
2022-08-02T19:47:22.795Z,25.88
2022-08-02T19:49:49.281Z,25.77
2022-08-02T19:52:21.368Z,25.67
2022-08-02T19:54:55.689Z,25.66
2022-08-02T19:57:08.335Z,25.66
2022-08-02T19:59:34.733Z,25.69
2022-08-02T20:02:01.140Z,25.62
2022-08-02T20:04:27.497Z,25.61
2022-08-02T20:06:53.984Z,25.59
2022-08-02T20:09:22.262Z,25.53
2022-08-02T20:11:46.740Z,25.53
2022-08-02T20:14:13.302Z,25.57
2022-08-02T20:16:39.512Z,25.55
2022-08-02T20:19:06.289Z,25.48
2022-08-02T20:21:35.845Z,25.46
2022-08-02T20:23:58.621Z,25.33
2022-08-02T20:26:25.050Z,25.17
2022-08-02T20:28:51.402Z,25.03
2022-08-02T20:31:17.784Z,25.06
2022-08-02T20:33:55.943Z,25.17
2022-08-02T20:36:10.526Z,25.20
2022-08-02T20:38:36.895Z,25.17
2022-08-02T20:41:03.330Z,25.14
2022-08-02T20:43:31.310Z,25.02
2022-08-02T20:45:56.085Z,24.93
2022-08-02T20:48:22.484Z,24.89
2022-08-02T20:50:49.345Z,24.77
2022-08-02T20:53:24.026Z,24.63
2022-08-02T20:55:41.646Z,24.47
2022-08-02T20:58:11.659Z,24.42
2022-08-02T21:00:34.421Z,24.33
2022-08-02T21:03:00.833Z,24.41
2022-08-02T21:05:43.822Z,24.32
2022-08-02T21:07:55.023Z,24.15
2022-08-02T21:10:20.067Z,24.17
2022-08-02T21:12:46.553Z,24.16
2022-08-02T21:15:12.932Z,23.98
2022-08-02T21:17:47.506Z,23.91
2022-08-02T21:20:05.707Z,23.85
2022-08-02T21:22:32.118Z,23.84
2022-08-02T21:24:58.512Z,23.86
2022-08-02T21:27:53.428Z,23.86
2022-08-02T21:29:51.591Z,23.81
2022-08-02T21:32:18.230Z,23.63
2022-08-02T21:34:44.384Z,23.63
2022-08-02T21:37:10.760Z,23.55
2022-08-02T21:39:37.169Z,23.53
2022-08-02T21:42:03.645Z,23.51
2022-08-02T21:44:30.071Z,23.53
2022-08-02T21:46:56.449Z,23.61
2022-08-02T21:49:41.060Z,23.62
2022-08-02T21:51:50.318Z,23.61
2022-08-02T21:54:18.574Z,23.69
2022-08-02T21:56:42.079Z,23.71
2022-08-02T21:59:16.142Z,23.66
2022-08-02T22:01:34.869Z,23.53
2022-08-02T22:04:01.214Z,23.47
2022-08-02T22:06:27.665Z,23.44
2022-08-02T22:08:54.101Z,23.39
2022-08-02T22:11:20.536Z,23.37
2022-08-02T22:13:47.120Z,23.33
2022-08-02T22:16:13.298Z,23.34
2022-08-02T22:18:39.697Z,23.36
2022-08-02T22:21:14.501Z,23.30
2022-08-02T22:23:38.716Z,23.26
2022-08-02T22:25:58.965Z,23.24
2022-08-02T22:28:37.913Z,23.26
2022-08-02T22:30:52.516Z,23.37
2022-08-02T22:33:18.218Z,23.32
2022-08-02T22:35:44.659Z,23.31
2022-08-02T22:38:15.341Z,23.34
2022-08-02T22:40:37.526Z,23.40
2022-08-02T22:43:03.911Z,23.27
2022-08-02T22:45:30.254Z,23.06
2022-08-02T22:47:56.616Z,23.04
2022-08-02T22:50:23.075Z,23.21
2022-08-02T22:52:50.288Z,23.26
2022-08-02T22:55:15.749Z,23.14
2022-08-02T22:57:50.597Z,23.10
2022-08-02T22:58:58.310Z,26.85
2022-08-02T23:00:08.582Z,23.05
2022-08-02T23:02:34.940Z,23.05
2022-08-02T23:05:01.344Z,22.88
2022-08-02T23:07:27.776Z,22.75
2022-08-02T23:09:54.213Z,22.67
2022-08-02T23:12:20.573Z,22.62
2022-08-02T23:14:46.964Z,22.59
2022-08-02T23:17:13.407Z,22.51
2022-08-02T23:19:39.780Z,22.44
2022-08-02T23:22:06.140Z,22.47
2022-08-02T23:24:32.508Z,22.43
2022-08-02T23:26:58.877Z,22.45
2022-08-02T23:29:25.369Z,22.40
2022-08-02T23:31:51.747Z,22.22
2022-08-02T23:34:18.235Z,22.04
2022-08-02T23:36:44.591Z,21.94
2022-08-02T23:39:10.990Z,21.72
2022-08-02T23:41:37.363Z,21.69
2022-08-02T23:44:13.515Z,21.81
2022-08-02T23:46:30.196Z,21.77
2022-08-02T23:48:56.634Z,21.75
2022-08-02T23:51:22.990Z,21.59
2022-08-02T23:53:49.383Z,21.46
2022-08-02T23:56:15.840Z,21.42
2022-08-02T23:58:42.196Z,21.39
